createdAt,value
2017-07-25T00:00:34.968Z,0
2017-07-25T00:01:43.919Z,0
2017-07-25T00:02:52.879Z,0
2017-07-25T00:04:01.841Z,0
2017-07-25T00:05:11.125Z,0
2017-07-25T00:06:20.080Z,0
2017-07-25T00:07:29.038Z,0
2017-07-25T00:08:37.987Z,0
2017-07-25T00:09:46.940Z,0
2017-07-25T00:10:56.215Z,0
2017-07-25T00:12:05.177Z,0
2017-07-25T00:13:14.130Z,0
2017-07-25T00:14:23.443Z,0
2017-07-25T00:15:32.394Z,0
2017-07-25T00:16:41.345Z,0
2017-07-25T00:17:50.301Z,0
2017-07-25T00:18:59.264Z,0
2017-07-25T00:20:08.222Z,0
2017-07-25T00:21:17.501Z,0
2017-07-25T00:22:26.468Z,0
2017-07-25T00:23:35.422Z,0
2017-07-25T00:24:44.365Z,0
2017-07-25T00:25:53.319Z,0
2017-07-25T00:27:02.274Z,0
2017-07-25T00:28:11.246Z,0
2017-07-25T00:29:20.209Z,0
2017-07-25T00:30:29.167Z,0
2017-07-25T00:31:38.123Z,0
2017-07-25T00:32:47.070Z,0
2017-07-25T00:33:56.026Z,0
2017-07-25T00:35:05.314Z,0
2017-07-25T00:36:14.268Z,0
2017-07-25T00:37:23.225Z,0
2017-07-25T00:38:32.169Z,0
2017-07-25T00:39:41.111Z,0
2017-07-25T00:40:50.068Z,0
2017-07-25T00:41:59.022Z,0
2017-07-25T00:43:08.005Z,0
2017-07-25T00:44:16.953Z,0
2017-07-25T00:45:25.901Z,0
2017-07-25T00:46:34.856Z,0
2017-07-25T00:47:43.814Z,0
2017-07-25T00:48:52.766Z,0
2017-07-25T00:50:01.724Z,0
2017-07-25T00:51:10.683Z,0
2017-07-25T00:52:19.633Z,0
2017-07-25T00:53:28.580Z,0
2017-07-25T00:54:37.536Z,0
2017-07-25T00:55:46.482Z,0
2017-07-25T00:56:55.434Z,0
2017-07-25T00:58:04.393Z,0
2017-07-25T00:59:13.343Z,0
2017-07-25T01:00:22.303Z,0
2017-07-25T01:01:31.263Z,0
2017-07-25T01:02:40.211Z,0
2017-07-25T01:03:49.164Z,0
2017-07-25T01:04:58.115Z,0
2017-07-25T01:06:07.091Z,0
2017-07-25T01:07:16.383Z,0
2017-07-25T01:08:25.331Z,0
2017-07-25T01:09:34.285Z,0
2017-07-25T01:10:43.247Z,0
2017-07-25T01:11:52.202Z,0
2017-07-25T01:13:01.156Z,0
2017-07-25T01:14:10.106Z,0
2017-07-25T01:15:19.060Z,0
2017-07-25T01:16:28.029Z,0
2017-07-25T01:17:36.975Z,0
2017-07-25T01:18:45.938Z,0
2017-07-25T01:19:54.895Z,0
2017-07-25T01:21:03.851Z,0
2017-07-25T01:22:12.807Z,0
2017-07-25T01:23:21.762Z,0
2017-07-25T01:24:31.043Z,0
2017-07-25T01:25:40.006Z,0
2017-07-25T01:26:48.956Z,0
2017-07-25T01:27:57.907Z,0
2017-07-25T01:29:07.196Z,0
2017-07-25T01:30:16.155Z,0
2017-07-25T01:31:25.105Z,0
2017-07-25T01:32:34.055Z,0
2017-07-25T01:33:43.012Z,0
2017-07-25T01:34:51.962Z,0
2017-07-25T01:36:00.912Z,0
2017-07-25T01:37:09.862Z,0
2017-07-25T01:38:18.814Z,0
2017-07-25T01:39:27.765Z,0
2017-07-25T01:40:36.713Z,0
2017-07-25T01:41:45.665Z,0
2017-07-25T01:42:54.622Z,0
2017-07-25T01:44:03.575Z,0
2017-07-25T01:45:12.845Z,0
2017-07-25T01:46:21.811Z,0
2017-07-25T01:47:30.767Z,0
2017-07-25T01:48:39.717Z,0
2017-07-25T01:49:48.681Z,0
2017-07-25T01:50:57.638Z,0
2017-07-25T01:52:06.595Z,0
2017-07-25T01:53:15.553Z,0
2017-07-25T01:54:24.503Z,0
2017-07-25T01:55:33.465Z,0
2017-07-25T01:56:42.418Z,0
2017-07-25T01:57:51.369Z,0
2017-07-25T01:59:00.319Z,0
2017-07-25T02:00:09.277Z,0
2017-07-25T02:01:18.557Z,0
2017-07-25T02:02:27.512Z,0
2017-07-25T02:03:36.466Z,0
2017-07-25T02:04:45.420Z,0
2017-07-25T02:05:54.367Z,0
2017-07-25T02:07:03.318Z,0
2017-07-25T02:08:12.265Z,0
2017-07-25T02:09:21.215Z,0
2017-07-25T02:10:30.494Z,0
2017-07-25T02:11:39.447Z,0
2017-07-25T02:12:48.406Z,0
2017-07-25T02:13:57.363Z,0
2017-07-25T02:15:06.316Z,0
2017-07-25T02:16:15.267Z,0
2017-07-25T02:17:24.226Z,0
2017-07-25T02:18:33.186Z,0
2017-07-25T02:19:42.141Z,0
2017-07-25T02:20:51.751Z,0
2017-07-25T02:22:00.708Z,0
2017-07-25T02:23:09.990Z,0
2017-07-25T02:24:18.949Z,0
2017-07-25T02:25:27.921Z,0
2017-07-25T02:26:36.877Z,0
2017-07-25T02:27:45.826Z,0
2017-07-25T02:28:54.781Z,0
2017-07-25T02:30:04.085Z,0
2017-07-25T02:31:13.037Z,0
2017-07-25T02:32:22.000Z,0
2017-07-25T02:33:30.964Z,0
2017-07-25T02:34:39.937Z,0
2017-07-25T02:35:49.213Z,0
2017-07-25T02:36:58.494Z,0
2017-07-25T02:38:07.467Z,0
2017-07-25T02:39:16.429Z,0
2017-07-25T02:40:25.391Z,0
2017-07-25T02:41:34.350Z,0
2017-07-25T02:42:43.311Z,0
2017-07-25T02:43:52.261Z,0
2017-07-25T02:45:01.212Z,0
2017-07-25T02:46:10.176Z,0
2017-07-25T02:47:19.124Z,0
2017-07-25T02:48:28.091Z,0
2017-07-25T02:49:37.043Z,0
2017-07-25T02:50:45.991Z,0
2017-07-25T02:51:54.936Z,0
2017-07-25T02:53:03.899Z,0
2017-07-25T02:54:12.857Z,0
2017-07-25T02:55:21.819Z,0
2017-07-25T02:56:30.778Z,0
2017-07-25T02:57:39.731Z,0
2017-07-25T02:58:48.679Z,0
2017-07-25T02:59:57.634Z,0
2017-07-25T03:01:06.593Z,0
2017-07-25T03:02:15.544Z,0
2017-07-25T03:03:24.493Z,0
2017-07-25T03:04:33.451Z,0
2017-07-25T03:05:42.402Z,0
2017-07-25T03:06:51.352Z,0
2017-07-25T03:08:00.302Z,0
2017-07-25T03:09:09.257Z,0
2017-07-25T03:10:18.211Z,0
2017-07-25T03:11:27.171Z,0
2017-07-25T03:12:36.112Z,0
2017-07-25T03:13:45.062Z,0
2017-07-25T03:14:54.008Z,0
2017-07-25T03:16:02.954Z,0
2017-07-25T03:17:12.233Z,0
2017-07-25T03:18:21.509Z,0
2017-07-25T03:19:30.459Z,0
2017-07-25T03:20:39.412Z,0
2017-07-25T03:21:48.375Z,0
2017-07-25T03:22:57.332Z,0
2017-07-25T03:24:06.283Z,0
2017-07-25T03:25:15.240Z,0
2017-07-25T03:26:24.197Z,0
2017-07-25T03:27:33.156Z,0
2017-07-25T03:28:42.140Z,0
2017-07-25T03:29:51.102Z,0
2017-07-25T03:31:00.068Z,0
2017-07-25T03:32:09.019Z,0
2017-07-25T03:33:17.973Z,0
2017-07-25T03:34:26.923Z,0
2017-07-25T03:35:35.873Z,0
2017-07-25T03:36:44.817Z,0
2017-07-25T03:37:53.769Z,0
2017-07-25T03:39:02.723Z,0
2017-07-25T03:40:11.680Z,0
2017-07-25T03:41:20.638Z,0
2017-07-25T03:42:29.615Z,0
2017-07-25T03:43:38.573Z,0
2017-07-25T03:44:47.527Z,0
2017-07-25T03:45:56.478Z,0
2017-07-25T03:47:05.434Z,0
2017-07-25T03:48:14.392Z,0
2017-07-25T03:49:23.340Z,0
2017-07-25T03:50:32.296Z,0
2017-07-25T03:51:41.263Z,0
2017-07-25T03:52:50.212Z,0
2017-07-25T03:53:59.171Z,0
2017-07-25T03:55:08.124Z,0
2017-07-25T03:56:17.074Z,0
2017-07-25T03:57:26.025Z,0
2017-07-25T03:58:34.984Z,0
2017-07-25T03:59:43.951Z,0
2017-07-25T04:00:52.904Z,0
2017-07-25T04:02:01.862Z,0
2017-07-25T04:03:10.820Z,0
2017-07-25T04:04:19.773Z,0
2017-07-25T04:05:28.720Z,0
2017-07-25T04:06:37.680Z,0
2017-07-25T04:07:46.635Z,0
2017-07-25T04:08:55.586Z,0
2017-07-25T04:10:04.548Z,0
2017-07-25T04:11:13.499Z,0
2017-07-25T04:12:22.452Z,0
2017-07-25T04:13:31.413Z,0
2017-07-25T04:14:40.363Z,0
2017-07-25T04:15:49.323Z,0
2017-07-25T04:16:58.273Z,0
2017-07-25T04:18:07.225Z,0
2017-07-25T04:19:16.179Z,0
2017-07-25T04:20:25.453Z,0
2017-07-25T04:21:34.413Z,0
2017-07-25T04:22:43.389Z,0
2017-07-25T04:23:52.338Z,0
2017-07-25T04:25:01.301Z,0
2017-07-25T04:26:10.266Z,0
2017-07-25T04:27:19.554Z,0
2017-07-25T04:28:28.508Z,0
2017-07-25T04:29:37.464Z,0
2017-07-25T04:30:46.424Z,0
2017-07-25T04:31:55.376Z,0
2017-07-25T04:33:04.332Z,0
2017-07-25T04:34:13.292Z,0
2017-07-25T04:35:22.570Z,0
2017-07-25T04:36:31.545Z,0
2017-07-25T04:37:40.502Z,0
2017-07-25T04:38:49.458Z,0
2017-07-25T04:39:58.419Z,0
2017-07-25T04:41:07.376Z,0
2017-07-25T04:42:16.329Z,0
2017-07-25T04:43:25.295Z,0
2017-07-25T04:44:34.567Z,0
2017-07-25T04:45:43.517Z,0
2017-07-25T04:46:52.795Z,0
2017-07-25T04:48:01.739Z,0
2017-07-25T04:49:10.697Z,5
2017-07-25T04:50:19.653Z,0
2017-07-25T04:51:28.608Z,5
2017-07-25T04:52:37.557Z,0
2017-07-25T04:53:46.511Z,0
2017-07-25T04:54:55.461Z,5
2017-07-25T04:56:04.416Z,5
2017-07-25T04:57:13.366Z,5
2017-07-25T04:58:22.320Z,5
2017-07-25T04:59:31.277Z,5
2017-07-25T05:00:40.232Z,5
2017-07-25T05:01:49.517Z,5
2017-07-25T05:02:58.791Z,5
2017-07-25T05:04:07.737Z,5
2017-07-25T05:05:16.690Z,5
2017-07-25T05:06:25.726Z,5
2017-07-25T05:07:34.669Z,5
2017-07-25T05:08:43.620Z,5
2017-07-25T05:09:52.902Z,5
2017-07-25T05:11:01.848Z,5
2017-07-25T05:12:10.851Z,5
2017-07-25T05:13:19.808Z,5
2017-07-25T05:14:28.763Z,5
2017-07-25T05:15:37.720Z,5
2017-07-25T05:16:46.672Z,5
2017-07-25T05:17:55.949Z,5
2017-07-25T05:19:04.899Z,5
2017-07-25T05:20:13.864Z,5
2017-07-25T05:21:22.830Z,0
2017-07-25T05:22:31.779Z,0
2017-07-25T05:23:40.731Z,0
2017-07-25T05:24:49.681Z,0
2017-07-25T05:25:58.632Z,5
2017-07-25T05:27:07.573Z,5
2017-07-25T05:28:16.536Z,10
2017-07-25T05:29:25.487Z,5
2017-07-25T05:30:34.443Z,5
2017-07-25T05:31:43.397Z,5
2017-07-25T05:32:52.358Z,5
2017-07-25T05:34:01.314Z,5
2017-07-25T05:35:10.303Z,10
2017-07-25T05:36:19.262Z,10
2017-07-25T05:37:28.215Z,10
2017-07-25T05:38:37.171Z,10
2017-07-25T05:39:46.132Z,10
2017-07-25T05:40:55.401Z,10
2017-07-25T05:42:04.345Z,15
2017-07-25T05:43:13.298Z,15
2017-07-25T05:44:22.249Z,10
2017-07-25T05:45:31.194Z,10
2017-07-25T05:46:40.138Z,10
2017-07-25T05:47:49.095Z,10
2017-07-25T05:48:58.049Z,10
2017-07-25T05:50:07.012Z,10
2017-07-25T05:51:15.965Z,10
2017-07-25T05:52:24.912Z,15
2017-07-25T05:53:33.861Z,10
2017-07-25T05:54:42.814Z,15
2017-07-25T05:55:51.765Z,15
2017-07-25T05:57:00.717Z,15
2017-07-25T05:58:09.672Z,15
2017-07-25T05:59:18.632Z,15
2017-07-25T06:00:27.585Z,15
2017-07-25T06:01:36.538Z,15
2017-07-25T06:02:45.489Z,15
2017-07-25T06:03:54.439Z,15
2017-07-25T06:05:03.401Z,15
2017-07-25T06:06:12.350Z,15
2017-07-25T06:07:21.324Z,15
2017-07-25T06:08:30.269Z,15
2017-07-25T06:09:39.233Z,15
2017-07-25T06:10:48.184Z,15
2017-07-25T06:11:57.141Z,15
2017-07-25T06:13:06.102Z,15
2017-07-25T06:14:15.055Z,20
2017-07-25T06:15:24.005Z,20
2017-07-25T06:16:32.951Z,30
2017-07-25T06:17:41.912Z,35
2017-07-25T06:18:50.860Z,30
2017-07-25T06:19:59.845Z,30
2017-07-25T06:21:08.789Z,30
2017-07-25T06:22:17.739Z,25
2017-07-25T06:23:26.710Z,20
2017-07-25T06:24:35.656Z,20
2017-07-25T06:25:44.613Z,20
2017-07-25T06:26:53.565Z,20
2017-07-25T06:28:02.525Z,20
2017-07-25T06:29:11.482Z,20
2017-07-25T06:30:20.425Z,15
2017-07-25T06:31:29.706Z,20
2017-07-25T06:32:38.658Z,20
2017-07-25T06:33:47.608Z,25
2017-07-25T06:34:56.554Z,25
2017-07-25T06:36:05.837Z,25
2017-07-25T06:37:14.796Z,20
2017-07-25T06:38:23.748Z,20
2017-07-25T06:39:32.695Z,20
2017-07-25T06:40:41.643Z,20
2017-07-25T06:41:50.591Z,20
2017-07-25T06:42:59.549Z,20
2017-07-25T06:44:08.507Z,20
2017-07-25T06:45:17.465Z,20
2017-07-25T06:46:26.419Z,20
2017-07-25T06:47:35.372Z,20
2017-07-25T06:48:44.655Z,20
2017-07-25T06:49:53.616Z,20
2017-07-25T06:51:02.883Z,20
2017-07-25T06:52:11.839Z,20
2017-07-25T06:53:20.801Z,20
2017-07-25T06:54:29.764Z,15
2017-07-25T06:55:38.712Z,20
2017-07-25T06:56:47.666Z,20
2017-07-25T06:57:56.625Z,15
2017-07-25T06:59:05.912Z,15
2017-07-25T07:00:14.867Z,15
2017-07-25T07:01:23.819Z,15
2017-07-25T07:02:32.768Z,15
2017-07-25T07:03:41.720Z,15
2017-07-25T07:04:50.683Z,15
2017-07-25T07:05:59.641Z,15
2017-07-25T07:07:08.590Z,15
2017-07-25T07:08:17.542Z,15
2017-07-25T07:09:26.498Z,15
2017-07-25T07:10:35.461Z,15
2017-07-25T07:11:44.419Z,15
2017-07-25T07:12:53.371Z,15
2017-07-25T07:14:02.654Z,15
2017-07-25T07:15:11.609Z,10
2017-07-25T07:16:20.563Z,10
2017-07-25T07:17:29.521Z,15
2017-07-25T07:18:38.476Z,15
2017-07-25T07:19:47.428Z,10
2017-07-25T07:20:56.707Z,10
2017-07-25T07:22:05.670Z,10
2017-07-25T07:23:14.630Z,15
2017-07-25T07:24:23.585Z,20
2017-07-25T07:25:32.538Z,20
2017-07-25T07:26:41.502Z,20
2017-07-25T07:27:50.452Z,20
2017-07-25T07:28:59.414Z,20
2017-07-25T07:30:08.367Z,20
2017-07-25T07:31:17.327Z,20
2017-07-25T07:32:26.287Z,20
2017-07-25T07:33:35.239Z,20
2017-07-25T07:34:44.196Z,20
2017-07-25T07:35:53.167Z,20
2017-07-25T07:37:02.125Z,20
2017-07-25T07:38:11.081Z,15
2017-07-25T07:39:20.034Z,15
2017-07-25T07:40:28.987Z,15
2017-07-25T07:41:37.959Z,10
2017-07-25T07:42:46.908Z,10
2017-07-25T07:43:55.856Z,10
2017-07-25T07:45:05.139Z,10
2017-07-25T07:46:14.104Z,10
2017-07-25T07:47:23.059Z,10
2017-07-25T07:48:32.017Z,10
2017-07-25T07:49:40.969Z,10
2017-07-25T07:50:49.923Z,10
2017-07-25T07:51:58.870Z,15
2017-07-25T07:53:07.830Z,15
2017-07-25T07:54:16.777Z,15
2017-07-25T07:55:25.731Z,15
2017-07-25T07:56:34.688Z,15
2017-07-25T07:57:43.648Z,10
2017-07-25T07:58:52.605Z,10
2017-07-25T08:00:01.566Z,10
2017-07-25T08:01:10.517Z,10
2017-07-25T08:02:19.465Z,10
2017-07-25T08:03:28.434Z,15
2017-07-25T08:04:37.388Z,15
2017-07-25T08:05:46.336Z,15
2017-07-25T08:06:55.284Z,15
2017-07-25T08:08:04.237Z,15
2017-07-25T08:09:13.196Z,15
2017-07-25T08:10:22.471Z,20
2017-07-25T08:11:31.427Z,25
2017-07-25T08:12:40.378Z,25
2017-07-25T08:13:49.337Z,15
2017-07-25T08:14:58.282Z,20
2017-07-25T08:16:07.242Z,25
2017-07-25T08:17:16.521Z,30
2017-07-25T08:18:25.477Z,30
2017-07-25T08:19:34.440Z,30
2017-07-25T08:20:43.395Z,35
2017-07-25T08:21:52.344Z,45
2017-07-25T08:23:01.321Z,50
2017-07-25T08:24:10.284Z,50
2017-07-25T08:25:19.254Z,50
2017-07-25T08:26:28.206Z,45
2017-07-25T08:27:37.155Z,45
2017-07-25T08:28:46.104Z,45
2017-07-25T08:29:55.074Z,55
2017-07-25T08:31:04.024Z,60
2017-07-25T08:32:12.996Z,60
2017-07-25T08:33:21.959Z,65
2017-07-25T08:34:30.911Z,70
2017-07-25T08:35:39.857Z,70
2017-07-25T08:36:48.815Z,70
2017-07-25T08:37:57.768Z,70
2017-07-25T08:39:06.724Z,70
2017-07-25T08:40:15.685Z,70
2017-07-25T08:41:24.972Z,70
2017-07-25T08:42:33.919Z,70
2017-07-25T08:43:42.878Z,70
2017-07-25T08:44:51.827Z,70
2017-07-25T08:46:00.786Z,75
2017-07-25T08:47:09.738Z,80
2017-07-25T08:48:18.688Z,80
2017-07-25T08:49:27.632Z,75
2017-07-25T08:50:36.597Z,70
2017-07-25T08:51:45.556Z,75
2017-07-25T08:52:54.506Z,75
2017-07-25T08:54:03.458Z,80
2017-07-25T08:55:12.422Z,80
2017-07-25T08:56:21.375Z,80
2017-07-25T08:57:30.332Z,75
2017-07-25T08:58:39.284Z,70
2017-07-25T08:59:48.232Z,75
2017-07-25T09:00:57.189Z,70
2017-07-25T09:02:06.161Z,65
2017-07-25T09:03:15.114Z,60
2017-07-25T09:04:24.065Z,60
2017-07-25T09:05:33.019Z,55
2017-07-25T09:06:41.972Z,55
2017-07-25T09:07:50.916Z,55
2017-07-25T09:08:59.860Z,55
2017-07-25T09:10:08.812Z,55
2017-07-25T09:11:17.764Z,50
2017-07-25T09:12:26.718Z,55
2017-07-25T09:13:35.677Z,55
2017-07-25T09:14:44.660Z,55
2017-07-25T09:15:53.612Z,50
2017-07-25T09:17:02.960Z,50
2017-07-25T09:18:11.916Z,50
2017-07-25T09:19:20.872Z,45
2017-07-25T09:20:30.154Z,45
2017-07-25T09:21:39.108Z,50
2017-07-25T09:22:48.390Z,50
2017-07-25T09:23:57.346Z,55
2017-07-25T09:25:06.294Z,55
2017-07-25T09:26:15.237Z,60
2017-07-25T09:27:24.192Z,65
2017-07-25T09:28:33.144Z,75
2017-07-25T09:29:42.097Z,75
2017-07-25T09:30:51.064Z,70
2017-07-25T09:32:00.021Z,70
2017-07-25T09:33:08.984Z,60
2017-07-25T09:34:17.941Z,75
2017-07-25T09:35:26.890Z,80
2017-07-25T09:36:35.836Z,75
2017-07-25T09:37:44.790Z,80
2017-07-25T09:38:53.750Z,80
2017-07-25T09:40:02.705Z,90
2017-07-25T09:41:11.664Z,95
2017-07-25T09:42:20.621Z,105
2017-07-25T09:43:29.583Z,95
2017-07-25T09:44:38.529Z,85
2017-07-25T09:45:47.477Z,90
2017-07-25T09:46:56.430Z,80
2017-07-25T09:48:05.384Z,80
2017-07-25T09:49:14.343Z,90
2017-07-25T09:50:23.296Z,85
2017-07-25T09:51:32.257Z,60
2017-07-25T09:52:41.214Z,60
2017-07-25T09:53:50.173Z,55
2017-07-25T09:54:59.126Z,55
2017-07-25T09:56:08.089Z,55
2017-07-25T09:57:17.058Z,60
2017-07-25T09:58:26.010Z,65
2017-07-25T09:59:34.960Z,50
2017-07-25T10:00:43.915Z,80
2017-07-25T10:01:52.868Z,65
2017-07-25T10:03:01.823Z,50
2017-07-25T10:04:10.779Z,50
2017-07-25T10:05:19.737Z,70
2017-07-25T10:06:28.697Z,70
2017-07-25T10:07:37.653Z,70
2017-07-25T10:08:46.608Z,85
2017-07-25T10:09:55.567Z,95
2017-07-25T10:11:04.521Z,105
2017-07-25T10:12:13.805Z,90
2017-07-25T10:13:22.749Z,105
2017-07-25T10:14:31.714Z,105
2017-07-25T10:15:40.674Z,105
2017-07-25T10:16:49.616Z,90
2017-07-25T10:17:58.569Z,105
2017-07-25T10:19:07.545Z,115
2017-07-25T10:20:16.497Z,130
2017-07-25T10:21:25.454Z,105
2017-07-25T10:22:34.421Z,105
2017-07-25T10:23:43.376Z,110
2017-07-25T10:24:52.331Z,70
2017-07-25T10:26:01.299Z,75
2017-07-25T10:27:10.260Z,75
2017-07-25T10:28:19.217Z,80
2017-07-25T10:29:28.176Z,65
2017-07-25T10:30:37.132Z,65
2017-07-25T10:31:46.091Z,65
2017-07-25T10:32:55.040Z,75
2017-07-25T10:34:03.996Z,65
2017-07-25T10:35:12.946Z,60
2017-07-25T10:36:21.899Z,50
2017-07-25T10:37:30.862Z,80
2017-07-25T10:38:39.808Z,80
2017-07-25T10:39:48.787Z,95
2017-07-25T10:40:57.739Z,75
2017-07-25T10:42:07.010Z,75
2017-07-25T10:43:15.971Z,75
2017-07-25T10:44:24.924Z,55
2017-07-25T10:45:33.886Z,50
2017-07-25T10:46:42.843Z,55
2017-07-25T10:47:51.824Z,60
2017-07-25T10:49:00.773Z,50
2017-07-25T10:50:09.781Z,60
2017-07-25T10:51:18.748Z,50
2017-07-25T10:52:27.699Z,55
2017-07-25T10:53:36.646Z,50
2017-07-25T10:54:45.609Z,55
2017-07-25T10:55:54.564Z,65
2017-07-25T10:57:03.530Z,65
2017-07-25T10:58:12.483Z,65
2017-07-25T10:59:21.425Z,65
2017-07-25T11:00:30.384Z,65
2017-07-25T11:01:39.658Z,75
2017-07-25T11:02:48.614Z,85
2017-07-25T11:03:57.572Z,95
2017-07-25T11:05:06.536Z,95
2017-07-25T11:06:15.488Z,80
2017-07-25T11:07:24.440Z,90
2017-07-25T11:08:33.390Z,90
2017-07-25T11:09:42.343Z,85
2017-07-25T11:10:51.299Z,90
2017-07-25T11:12:00.264Z,85
2017-07-25T11:13:09.224Z,90
2017-07-25T11:14:18.173Z,90
2017-07-25T11:15:27.457Z,90
2017-07-25T11:16:36.425Z,95
2017-07-25T11:17:45.383Z,105
2017-07-25T11:18:54.346Z,110
2017-07-25T11:20:03.301Z,115
2017-07-25T11:21:12.251Z,115
2017-07-25T11:22:21.209Z,120
2017-07-25T11:23:30.159Z,120
2017-07-25T11:24:39.112Z,115
2017-07-25T11:25:48.075Z,110
2017-07-25T11:26:57.039Z,90
2017-07-25T11:28:05.984Z,95
2017-07-25T11:29:14.952Z,95
2017-07-25T11:30:23.912Z,95
2017-07-25T11:31:32.859Z,110
2017-07-25T11:32:41.836Z,105
2017-07-25T11:33:50.789Z,105
2017-07-25T11:34:59.747Z,100
2017-07-25T11:36:08.696Z,90
2017-07-25T11:37:17.965Z,85
2017-07-25T11:38:26.922Z,75
2017-07-25T11:39:35.900Z,65
2017-07-25T11:40:44.848Z,60
2017-07-25T11:41:53.798Z,55
2017-07-25T11:43:02.758Z,45
2017-07-25T11:44:11.720Z,40
2017-07-25T11:45:20.668Z,40
2017-07-25T11:46:29.628Z,45
2017-07-25T11:47:38.580Z,45
2017-07-25T11:48:47.534Z,45
2017-07-25T11:49:56.480Z,45
2017-07-25T11:51:05.435Z,45
2017-07-25T11:52:14.389Z,45
2017-07-25T11:53:23.340Z,45
2017-07-25T11:54:32.298Z,40
2017-07-25T11:55:41.252Z,45
2017-07-25T11:56:50.519Z,45
2017-07-25T11:57:59.466Z,45
2017-07-25T11:59:08.429Z,45
2017-07-25T12:00:17.387Z,45
2017-07-25T12:01:26.341Z,40
2017-07-25T12:02:35.301Z,40
2017-07-25T12:03:44.252Z,40
2017-07-25T12:04:53.202Z,45
2017-07-25T12:06:02.151Z,45
2017-07-25T12:07:11.112Z,50
2017-07-25T12:08:20.071Z,50
2017-07-25T12:09:29.024Z,55
2017-07-25T12:10:37.997Z,55
2017-07-25T12:11:46.954Z,60
2017-07-25T12:12:55.904Z,55
2017-07-25T12:14:04.869Z,50
2017-07-25T12:15:13.818Z,50
2017-07-25T12:16:22.805Z,45
2017-07-25T12:17:32.086Z,45
2017-07-25T12:18:41.048Z,45
2017-07-25T12:19:50.019Z,45
2017-07-25T12:20:58.975Z,45
2017-07-25T12:22:07.937Z,40
2017-07-25T12:23:16.894Z,40
2017-07-25T12:24:25.847Z,35
2017-07-25T12:25:34.810Z,30
2017-07-25T12:26:44.094Z,30
2017-07-25T12:27:53.045Z,30
2017-07-25T12:29:02.007Z,35
2017-07-25T12:30:11.283Z,35
2017-07-25T12:31:20.576Z,35
2017-07-25T12:32:29.553Z,35
2017-07-25T12:33:38.511Z,35
2017-07-25T12:34:47.472Z,30
2017-07-25T12:35:56.425Z,30
2017-07-25T12:37:05.388Z,30
2017-07-25T12:38:14.344Z,35
2017-07-25T12:39:23.292Z,35
2017-07-25T12:40:32.247Z,35
2017-07-25T12:41:41.204Z,40
2017-07-25T12:42:50.167Z,40
2017-07-25T12:43:59.123Z,40
2017-07-25T12:45:08.083Z,40
2017-07-25T12:46:17.040Z,35
2017-07-25T12:47:25.991Z,35
2017-07-25T12:48:34.940Z,40
2017-07-25T12:49:43.900Z,35
2017-07-25T12:50:52.867Z,35
2017-07-25T12:52:01.818Z,35
2017-07-25T12:53:10.773Z,35
2017-07-25T12:54:19.723Z,35
2017-07-25T12:55:28.681Z,35
2017-07-25T12:56:37.645Z,35
2017-07-25T12:57:46.600Z,35
2017-07-25T12:58:55.558Z,35
2017-07-25T13:00:04.507Z,30
2017-07-25T13:01:13.453Z,30
2017-07-25T13:02:22.401Z,30
2017-07-25T13:03:31.351Z,25
2017-07-25T13:04:40.316Z,25
2017-07-25T13:05:49.272Z,25
2017-07-25T13:06:58.545Z,25
2017-07-25T13:08:07.507Z,25
2017-07-25T13:09:16.460Z,25
2017-07-25T13:10:25.736Z,20
2017-07-25T13:11:34.690Z,20
2017-07-25T13:12:43.648Z,20
2017-07-25T13:13:52.609Z,20
2017-07-25T13:15:01.555Z,20
2017-07-25T13:16:10.533Z,20
2017-07-25T13:17:19.497Z,25
2017-07-25T13:18:28.456Z,25
2017-07-25T13:19:37.400Z,25
2017-07-25T13:20:46.362Z,30
2017-07-25T13:21:55.310Z,30
2017-07-25T13:23:04.272Z,30
2017-07-25T13:24:13.226Z,30
2017-07-25T13:25:22.184Z,35
2017-07-25T13:26:31.151Z,35
2017-07-25T13:27:40.106Z,40
2017-07-25T13:28:49.061Z,40
2017-07-25T13:29:58.016Z,45
2017-07-25T13:31:06.968Z,45
2017-07-25T13:32:15.929Z,45
2017-07-25T13:33:24.884Z,45
2017-07-25T13:34:33.842Z,45
2017-07-25T13:35:43.125Z,40
2017-07-25T13:36:52.075Z,40
2017-07-25T13:38:01.032Z,35
2017-07-25T13:39:09.988Z,35
2017-07-25T13:40:18.952Z,35
2017-07-25T13:41:27.910Z,35
2017-07-25T13:42:36.865Z,35
2017-07-25T13:43:45.825Z,35
2017-07-25T13:44:54.780Z,35
2017-07-25T13:46:03.731Z,40
2017-07-25T13:47:12.680Z,35
2017-07-25T13:48:21.635Z,35
2017-07-25T13:49:30.599Z,35
2017-07-25T13:50:39.560Z,35
2017-07-25T13:51:48.524Z,35
2017-07-25T13:52:57.477Z,35
2017-07-25T13:54:06.430Z,30
2017-07-25T13:55:15.392Z,30
2017-07-25T13:56:24.350Z,30
2017-07-25T13:57:33.306Z,30
2017-07-25T13:58:42.266Z,35
2017-07-25T13:59:51.222Z,35
2017-07-25T14:01:00.181Z,30
2017-07-25T14:02:09.137Z,30
2017-07-25T14:03:18.086Z,30
2017-07-25T14:04:27.033Z,35
2017-07-25T14:05:35.989Z,30
2017-07-25T14:06:44.941Z,30
2017-07-25T14:07:53.897Z,30
2017-07-25T14:09:02.859Z,30
2017-07-25T14:10:11.825Z,25
2017-07-25T14:11:20.780Z,25
2017-07-25T14:12:29.731Z,25
2017-07-25T14:13:38.685Z,25
2017-07-25T14:14:47.642Z,25
2017-07-25T14:15:56.595Z,30
2017-07-25T14:17:05.547Z,30
2017-07-25T14:18:14.502Z,35
2017-07-25T14:19:23.777Z,35
2017-07-25T14:20:32.742Z,35
2017-07-25T14:21:41.696Z,40
2017-07-25T14:22:50.643Z,45
2017-07-25T14:23:59.594Z,45
2017-07-25T14:25:08.543Z,40
2017-07-25T14:26:17.492Z,40
2017-07-25T14:27:26.449Z,35
2017-07-25T14:28:35.415Z,30
2017-07-25T14:29:44.375Z,30
2017-07-25T14:30:53.340Z,30
2017-07-25T14:32:02.303Z,30
2017-07-25T14:33:11.586Z,30
2017-07-25T14:34:20.541Z,30
2017-07-25T14:35:29.499Z,35
2017-07-25T14:36:38.448Z,35
2017-07-25T14:37:47.402Z,40
2017-07-25T14:38:56.372Z,40
2017-07-25T14:40:05.322Z,40
2017-07-25T14:41:14.270Z,40
2017-07-25T14:42:23.231Z,40
2017-07-25T14:43:32.187Z,40
2017-07-25T14:44:41.143Z,40
2017-07-25T14:45:50.098Z,40
2017-07-25T14:46:59.056Z,35
2017-07-25T14:48:08.007Z,35
2017-07-25T14:49:16.962Z,35
2017-07-25T14:50:25.925Z,40
2017-07-25T14:51:34.879Z,40
2017-07-25T14:52:43.830Z,45
2017-07-25T14:53:52.777Z,45
2017-07-25T14:55:01.747Z,40
2017-07-25T14:56:10.694Z,35
2017-07-25T14:57:19.659Z,35
2017-07-25T14:58:28.621Z,40
2017-07-25T14:59:37.571Z,45
2017-07-25T15:00:46.532Z,45
2017-07-25T15:01:55.506Z,45
2017-07-25T15:03:04.448Z,45
2017-07-25T15:04:13.397Z,40
2017-07-25T15:05:22.347Z,30
2017-07-25T15:06:31.299Z,30
2017-07-25T15:07:40.258Z,25
2017-07-25T15:08:49.209Z,25
2017-07-25T15:09:58.152Z,25
2017-07-25T15:11:07.110Z,35
2017-07-25T15:12:16.078Z,35
2017-07-25T15:13:25.075Z,40
2017-07-25T15:14:34.024Z,45
2017-07-25T15:15:42.971Z,45
2017-07-25T15:16:51.926Z,45
2017-07-25T15:18:01.251Z,50
2017-07-25T15:19:10.202Z,50
2017-07-25T15:20:19.154Z,50
2017-07-25T15:21:28.112Z,50
2017-07-25T15:22:37.066Z,50
2017-07-25T15:23:46.028Z,45
2017-07-25T15:24:54.994Z,40
2017-07-25T15:26:03.948Z,30
2017-07-25T15:27:12.901Z,25
2017-07-25T15:28:21.858Z,25
2017-07-25T15:29:30.815Z,25
2017-07-25T15:30:39.772Z,30
2017-07-25T15:31:48.725Z,30
2017-07-25T15:32:57.677Z,25
2017-07-25T15:34:06.623Z,25
2017-07-25T15:35:15.580Z,25
2017-07-25T15:36:24.539Z,20
2017-07-25T15:37:33.493Z,20
2017-07-25T15:38:42.470Z,20
2017-07-25T15:39:51.437Z,15
2017-07-25T15:41:00.398Z,20
2017-07-25T15:42:09.353Z,20
2017-07-25T15:43:18.301Z,25
2017-07-25T15:44:27.261Z,25
2017-07-25T15:45:36.215Z,25
2017-07-25T15:46:45.177Z,25
2017-07-25T15:47:54.139Z,30
2017-07-25T15:49:03.097Z,30
2017-07-25T15:50:12.051Z,30
2017-07-25T15:51:21.009Z,35
2017-07-25T15:52:30.278Z,35
2017-07-25T15:53:39.234Z,30
2017-07-25T15:54:48.199Z,30
2017-07-25T15:55:57.158Z,35
2017-07-25T15:57:06.112Z,35
2017-07-25T15:58:15.398Z,40
2017-07-25T15:59:24.358Z,40
2017-07-25T16:00:33.655Z,40
2017-07-25T16:01:42.613Z,40
2017-07-25T16:02:51.569Z,45
2017-07-25T16:04:00.523Z,45
2017-07-25T16:05:09.479Z,45
2017-07-25T16:06:18.428Z,45
2017-07-25T16:07:27.383Z,45
2017-07-25T16:08:36.340Z,45
2017-07-25T16:09:45.289Z,45
2017-07-25T16:10:54.248Z,40
2017-07-25T16:12:03.205Z,40
2017-07-25T16:13:12.155Z,40
2017-07-25T16:14:21.114Z,40
2017-07-25T16:15:30.068Z,40
2017-07-25T16:16:39.027Z,40
2017-07-25T16:17:48.300Z,40
2017-07-25T16:18:57.259Z,35
2017-07-25T16:20:06.567Z,35
2017-07-25T16:21:15.843Z,35
2017-07-25T16:22:24.794Z,35
2017-07-25T16:23:33.747Z,35
2017-07-25T16:24:42.694Z,35
2017-07-25T16:25:51.646Z,35
2017-07-25T16:27:00.592Z,30
2017-07-25T16:28:09.577Z,30
2017-07-25T16:29:18.534Z,30
2017-07-25T16:30:27.487Z,30
2017-07-25T16:31:36.441Z,25
2017-07-25T16:32:45.407Z,25
2017-07-25T16:33:54.687Z,25
2017-07-25T16:35:03.642Z,25